createdAt,value
2022-09-23T00:01:11.399Z,13.56
2022-09-23T00:03:45.298Z,13.57
2022-09-23T00:06:20.398Z,13.58
2022-09-23T00:08:49.397Z,13.59
2022-09-23T00:11:18.386Z,13.61
2022-09-23T00:13:47.178Z,13.65
2022-09-23T00:16:17.007Z,13.64
2022-09-23T00:18:44.166Z,13.64
2022-09-23T00:21:13.613Z,13.63
2022-09-23T00:23:42.745Z,13.58
2022-09-23T00:26:12.525Z,13.56
2022-09-23T00:28:39.476Z,13.52
2022-09-23T00:31:09.191Z,13.51
2022-09-23T00:33:35.577Z,13.48
2022-09-23T00:36:06.465Z,13.47
2022-09-23T00:38:34.069Z,13.43
2022-09-23T00:41:00.789Z,13.42
2022-09-23T00:43:42.722Z,13.39
2022-09-23T00:46:19.348Z,13.34
2022-09-23T00:48:48.793Z,13.32
2022-09-23T00:51:20.510Z,13.33
2022-09-23T00:53:51.101Z,13.27
2022-09-23T00:56:20.678Z,13.22
2022-09-23T00:58:49.245Z,13.19
2022-09-23T01:01:15.853Z,13.14
2022-09-23T01:03:45.007Z,13.07
2022-09-23T01:06:11.711Z,13.05
2022-09-23T01:08:38.252Z,13.04
2022-09-23T01:11:15.351Z,13.01
2022-09-23T01:13:52.767Z,13.00
2022-09-23T01:16:43.963Z,12.98
2022-09-23T01:19:30.953Z,12.95
2022-09-23T01:22:09.587Z,12.98
2022-09-23T01:25:09.112Z,12.98
2022-09-23T01:28:11.964Z,12.92
2022-09-23T01:31:13.693Z,12.84
2022-09-23T01:34:24.191Z,12.75
2022-09-23T01:37:33.752Z,12.69
2022-09-23T01:41:09.375Z,12.65
2022-09-23T01:43:59.824Z,12.59
2022-09-23T01:46:31.175Z,12.57
2022-09-23T01:49:30.098Z,12.60
2022-09-23T01:52:06.830Z,12.57
2022-09-23T01:54:39.320Z,12.57
2022-09-23T01:57:33.443Z,12.56
2022-09-23T02:00:10.157Z,12.51
2022-09-23T02:02:59.576Z,12.50
2022-09-23T02:05:38.807Z,12.51
2022-09-23T02:08:12.985Z,12.48
2022-09-23T02:10:47.189Z,12.46
2022-09-23T02:13:19.214Z,12.41
2022-09-23T02:15:50.652Z,12.38
2022-09-23T02:18:23.653Z,12.37
2022-09-23T02:20:57.000Z,12.32
2022-09-23T02:23:29.988Z,12.30
2022-09-23T02:26:19.772Z,12.29
2022-09-23T02:29:10.777Z,12.27
2022-09-23T02:31:48.981Z,12.24
2022-09-23T02:34:24.416Z,12.21
2022-09-23T02:37:08.299Z,12.20
2022-09-23T02:39:52.863Z,12.16
2022-09-23T02:42:24.814Z,12.16
2022-09-23T02:44:51.207Z,12.14
2022-09-23T02:47:24.090Z,12.13
2022-09-23T02:49:50.568Z,12.10
2022-09-23T02:52:17.326Z,12.14
2022-09-23T02:54:44.114Z,12.13
2022-09-23T02:57:10.784Z,12.12
2022-09-23T02:59:38.266Z,12.08
2022-09-23T03:02:14.160Z,12.05
2022-09-23T03:05:03.774Z,12.04
2022-09-23T03:07:51.101Z,12.04
2022-09-23T03:10:39.737Z,12.04
2022-09-23T03:13:17.687Z,12.03
2022-09-23T03:15:57.336Z,12.04
2022-09-23T03:18:35.868Z,12.03
2022-09-23T03:21:07.209Z,12.01
2022-09-23T03:23:37.159Z,12.01
2022-09-23T03:26:16.900Z,12.00
2022-09-23T03:28:48.281Z,12.04
2022-09-23T03:31:17.241Z,12.03
2022-09-23T03:33:50.133Z,12.07
2022-09-23T03:36:41.026Z,12.10
2022-09-23T03:39:15.011Z,12.14
2022-09-23T03:41:49.364Z,12.15
2022-09-23T03:44:19.582Z,12.21
2022-09-23T03:46:50.017Z,12.22
2022-09-23T03:49:28.820Z,12.24
2022-09-23T03:51:55.943Z,12.26
2022-09-23T03:54:23.805Z,12.32
2022-09-23T03:56:50.220Z,12.33
2022-09-23T03:59:22.053Z,12.38
2022-09-23T04:01:48.490Z,12.41
2022-09-23T04:04:14.951Z,12.42
2022-09-23T04:06:41.569Z,12.45
2022-09-23T04:09:08.618Z,12.48
2022-09-23T04:11:35.366Z,12.49
2022-09-23T04:14:01.801Z,12.52
2022-09-23T04:16:28.275Z,12.55
2022-09-23T04:18:56.269Z,12.58
2022-09-23T04:21:27.191Z,12.58
2022-09-23T04:24:00.645Z,12.61
2022-09-23T04:26:28.332Z,12.63
2022-09-23T04:28:55.347Z,12.64
2022-09-23T04:31:23.760Z,12.67
2022-09-23T04:33:52.758Z,12.69
2022-09-23T04:36:19.339Z,12.71
2022-09-23T04:38:47.236Z,12.71
2022-09-23T04:41:14.196Z,12.72
2022-09-23T04:43:41.057Z,12.75
2022-09-23T04:46:13.321Z,12.73
2022-09-23T04:48:43.642Z,12.72
2022-09-23T04:51:13.536Z,12.73
2022-09-23T04:53:42.515Z,12.74
2022-09-23T04:56:14.857Z,12.74
2022-09-23T04:58:42.115Z,12.72
2022-09-23T05:01:14.947Z,12.72
2022-09-23T05:03:42.963Z,12.75
2022-09-23T05:06:13.505Z,12.80
2022-09-23T05:08:50.486Z,12.82
2022-09-23T05:11:18.582Z,12.85
2022-09-23T05:13:47.126Z,12.87
2022-09-23T05:16:14.498Z,12.88
2022-09-23T05:18:42.674Z,12.89
2022-09-23T05:21:11.215Z,12.91
2022-09-23T05:23:38.178Z,12.94
2022-09-23T05:26:07.674Z,12.93
2022-09-23T05:28:35.340Z,12.94
2022-09-23T05:31:06.055Z,12.93
2022-09-23T05:33:34.123Z,12.91
2022-09-23T05:36:01.196Z,12.90
2022-09-23T05:38:29.131Z,12.92
2022-09-23T05:41:07.687Z,12.90
2022-09-23T05:43:35.117Z,12.93
2022-09-23T05:46:08.594Z,12.94
2022-09-23T05:48:36.154Z,12.95
2022-09-23T05:51:03.658Z,12.97
2022-09-23T05:53:31.195Z,12.96
2022-09-23T05:55:57.838Z,12.99
2022-09-23T05:58:24.576Z,13.00
2022-09-23T06:00:51.453Z,13.03
2022-09-23T06:03:20.894Z,13.05
2022-09-23T06:05:48.350Z,13.05
2022-09-23T06:08:15.085Z,13.08
2022-09-23T06:10:43.977Z,13.08
2022-09-23T06:13:11.486Z,13.10
2022-09-23T06:15:39.629Z,13.10
2022-09-23T06:18:06.816Z,13.15
2022-09-23T06:20:35.717Z,13.14
2022-09-23T06:23:11.066Z,13.17
2022-09-23T06:25:39.389Z,13.19
2022-09-23T06:28:14.181Z,13.19
2022-09-23T06:30:40.581Z,13.19
2022-09-23T06:33:10.127Z,13.18
2022-09-23T06:35:39.541Z,13.17
2022-09-23T06:38:06.108Z,13.18
2022-09-23T06:40:34.747Z,13.22
2022-09-23T06:43:01.844Z,13.26
2022-09-23T06:45:29.221Z,13.30
2022-09-23T06:47:57.796Z,13.32
2022-09-23T06:50:26.595Z,13.35
2022-09-23T06:52:56.191Z,13.38
2022-09-23T06:55:27.906Z,13.40
2022-09-23T06:58:04.288Z,13.46
2022-09-23T07:00:33.481Z,13.48
2022-09-23T07:03:01.357Z,13.46
2022-09-23T07:05:28.286Z,13.50
2022-09-23T07:07:54.623Z,13.52
2022-09-23T07:10:21.425Z,13.55
2022-09-23T07:12:50.566Z,13.59
2022-09-23T07:15:17.082Z,13.62
2022-09-23T07:17:43.623Z,13.69
2022-09-23T07:20:11.378Z,13.74
2022-09-23T07:22:38.190Z,13.80
2022-09-23T07:25:06.654Z,13.79
2022-09-23T07:27:33.372Z,13.95
2022-09-23T07:30:01.690Z,14.08
2022-09-23T07:32:32.605Z,14.19
2022-09-23T07:35:09.031Z,14.30
2022-09-23T07:37:36.018Z,14.43
2022-09-23T07:40:05.010Z,14.55
2022-09-23T07:42:34.525Z,14.64
2022-09-23T07:45:02.478Z,14.76
2022-09-23T07:47:28.995Z,14.88
2022-09-23T07:49:55.435Z,15.03
2022-09-23T07:52:21.979Z,15.20
2022-09-23T07:54:48.745Z,15.42
2022-09-23T07:57:15.186Z,15.66
2022-09-23T07:59:43.757Z,15.94
2022-09-23T08:02:12.226Z,16.15
2022-09-23T08:04:45.604Z,16.32
2022-09-23T08:07:16.907Z,16.45
2022-09-23T08:09:43.733Z,16.47
2022-09-23T08:12:16.463Z,16.45
2022-09-23T08:14:54.337Z,16.45
2022-09-23T08:17:20.694Z,16.44
2022-09-23T08:19:47.142Z,16.49
2022-09-23T08:22:13.653Z,16.57
2022-09-23T08:24:43.050Z,16.63
2022-09-23T08:27:14.153Z,16.65
2022-09-23T08:29:40.514Z,16.73
2022-09-23T08:32:13.592Z,16.81
2022-09-23T08:34:40.126Z,16.94
2022-09-23T08:37:14.300Z,17.12
2022-09-23T08:39:59.587Z,17.31
2022-09-23T08:42:32.303Z,17.43
2022-09-23T08:45:02.736Z,17.61
2022-09-23T08:47:35.838Z,17.78
2022-09-23T08:50:20.676Z,17.91
2022-09-23T08:52:56.833Z,17.91
2022-09-23T08:56:06.828Z,17.90
2022-09-23T09:02:33.807Z,17.88
2022-09-23T09:05:07.156Z,17.87
2022-09-23T09:07:48.311Z,17.90
2022-09-23T09:10:20.549Z,17.94
2022-09-23T09:13:09.180Z,17.97
2022-09-23T09:15:45.510Z,18.15
2022-09-23T09:18:15.403Z,18.32
2022-09-23T09:20:51.066Z,18.47
2022-09-23T09:23:58.793Z,18.64
2022-09-23T09:26:46.363Z,18.91
2022-09-23T09:29:36.031Z,19.01
2022-09-23T09:32:16.607Z,19.03
2022-09-23T09:37:58.986Z,18.94
2022-09-23T09:40:25.659Z,18.92
2022-09-23T09:42:52.092Z,18.85
2022-09-23T09:46:10.540Z,18.75
2022-09-23T09:48:40.294Z,18.65
2022-09-23T09:51:30.140Z,18.64
2022-09-23T09:54:19.981Z,18.63
2022-09-23T09:59:41.725Z,18.51
2022-09-23T10:02:29.596Z,18.43
2022-09-23T10:05:35.339Z,18.36
2022-09-23T10:08:36.218Z,18.29
2022-09-23T10:11:18.084Z,18.27
2022-09-23T10:14:37.211Z,18.26
2022-09-23T10:17:07.220Z,18.18
2022-09-23T10:19:51.578Z,18.20
2022-09-23T10:22:30.089Z,18.22
2022-09-23T10:25:01.901Z,18.23
2022-09-23T10:27:31.391Z,18.25
2022-09-23T10:30:50.526Z,18.24
2022-09-23T10:33:27.089Z,18.29
2022-09-23T10:35:57.094Z,18.30
2022-09-23T10:38:23.561Z,18.34
2022-09-23T10:41:18.614Z,18.37
2022-09-23T10:44:07.398Z,18.42
2022-09-23T10:46:39.170Z,18.49
2022-09-23T10:49:23.561Z,18.56
2022-09-23T10:52:11.818Z,18.58
2022-09-23T10:54:59.552Z,18.64
2022-09-23T10:58:04.141Z,18.72
2022-09-23T11:01:14.942Z,18.79
2022-09-23T11:03:58.262Z,18.84
2022-09-23T11:06:45.776Z,18.88
2022-09-23T11:09:40.375Z,18.95
2022-09-23T11:12:44.345Z,18.97
2022-09-23T11:15:59.241Z,19.00
2022-09-23T11:18:31.051Z,18.98
2022-09-23T11:21:14.779Z,19.01
2022-09-23T11:24:14.953Z,18.98
2022-09-23T11:27:13.180Z,18.98
2022-09-23T11:30:13.229Z,19.01
2022-09-23T11:33:04.396Z,19.02
2022-09-23T11:35:41.573Z,19.02
2022-09-23T11:38:27.737Z,19.01
2022-09-23T11:41:17.442Z,19.01
2022-09-23T11:44:14.027Z,19.07
2022-09-23T11:46:46.555Z,19.12
2022-09-23T11:50:10.714Z,19.18
2022-09-23T11:52:43.652Z,19.18
2022-09-23T11:55:23.348Z,19.21
2022-09-23T11:58:24.965Z,19.25
2022-09-23T12:01:07.208Z,19.26
2022-09-23T12:04:03.910Z,19.25
2022-09-23T12:06:48.281Z,19.30
2022-09-23T12:09:57.329Z,19.33
2022-09-23T12:12:40.300Z,19.38
2022-09-23T12:15:31.135Z,19.45
2022-09-23T12:18:03.939Z,19.52
2022-09-23T12:20:45.274Z,19.53
2022-09-23T12:23:32.774Z,19.48
2022-09-23T12:26:02.934Z,19.47
2022-09-23T12:28:43.450Z,19.50
2022-09-23T12:31:13.713Z,19.50
2022-09-23T12:33:40.987Z,19.46
2022-09-23T12:36:12.173Z,19.46
2022-09-23T12:38:51.464Z,19.16
2022-09-23T12:41:40.249Z,19.45
2022-09-23T12:44:53.250Z,19.46
2022-09-23T12:47:25.595Z,19.42
2022-09-23T12:49:53.147Z,19.38
2022-09-23T12:52:19.435Z,19.40
2022-09-23T12:54:47.062Z,19.40
2022-09-23T12:57:33.614Z,19.42
2022-09-23T13:00:14.942Z,19.42
2022-09-23T13:02:47.330Z,19.36
2022-09-23T13:05:44.782Z,19.37
2022-09-23T13:08:20.574Z,19.39
2022-09-23T13:10:51.840Z,19.38
2022-09-23T13:13:41.431Z,19.38
2022-09-23T13:16:30.980Z,19.41
2022-09-23T13:18:58.568Z,19.41
2022-09-23T13:21:43.351Z,19.46
2022-09-23T13:24:31.233Z,19.48
2022-09-23T13:27:11.223Z,19.50
2022-09-23T13:30:00.751Z,19.54
2022-09-23T13:32:36.498Z,19.61
2022-09-23T13:35:15.615Z,19.66
2022-09-23T13:37:46.197Z,19.70
2022-09-23T13:40:27.385Z,19.80
2022-09-23T13:42:58.685Z,19.84
2022-09-23T13:45:26.485Z,19.88
2022-09-23T13:48:00.394Z,19.90
2022-09-23T13:50:29.556Z,19.91
2022-09-23T13:53:02.464Z,19.88
2022-09-23T13:55:38.764Z,19.82
2022-09-23T13:58:14.895Z,19.81
2022-09-23T14:00:41.250Z,19.79
2022-09-23T14:03:31.254Z,19.79
2022-09-23T14:06:05.716Z,19.75
2022-09-23T14:08:32.608Z,19.75
2022-09-23T14:10:59.943Z,19.73
2022-09-23T14:13:28.889Z,19.73
2022-09-23T14:16:01.885Z,19.67
2022-09-23T14:18:46.666Z,19.65
2022-09-23T14:21:35.122Z,19.68
2022-09-23T14:24:16.844Z,19.74
2022-09-23T14:26:47.132Z,19.76
2022-09-23T14:29:18.367Z,19.74
2022-09-23T14:31:56.685Z,19.72
2022-09-23T14:34:45.619Z,19.73
2022-09-23T14:37:36.795Z,19.73
2022-09-23T14:40:13.263Z,19.70
2022-09-23T14:42:43.268Z,19.70
2022-09-23T14:45:16.879Z,19.73
2022-09-23T14:47:48.573Z,19.73
2022-09-23T14:50:43.563Z,19.74
2022-09-23T14:53:19.043Z,19.70
2022-09-23T14:55:47.556Z,19.69
2022-09-23T14:58:17.186Z,19.62
2022-09-23T15:01:02.443Z,19.67
2022-09-23T15:03:29.210Z,19.65
2022-09-23T15:06:08.363Z,19.64
2022-09-23T15:08:35.833Z,19.60
2022-09-23T15:11:08.021Z,19.59
2022-09-23T15:13:39.785Z,19.55
2022-09-23T15:16:06.692Z,19.54
2022-09-23T15:18:38.829Z,19.55
2022-09-23T15:21:15.786Z,19.52
2022-09-23T15:23:46.781Z,19.50
2022-09-23T15:26:19.171Z,19.51
2022-09-23T15:28:46.598Z,19.50
2022-09-23T15:31:17.823Z,19.49
2022-09-23T15:33:47.106Z,19.46
2022-09-23T15:36:16.472Z,19.46
2022-09-23T15:38:46.048Z,19.43
2022-09-23T15:41:14.207Z,19.40
2022-09-23T15:43:45.068Z,19.40
2022-09-23T15:46:16.841Z,19.37
2022-09-23T15:48:53.159Z,19.33
2022-09-23T15:51:25.374Z,19.28
2022-09-23T15:53:52.133Z,19.24
2022-09-23T15:56:18.456Z,19.20
2022-09-23T15:58:44.787Z,19.18
2022-09-23T16:01:18.391Z,19.16
2022-09-23T16:03:44.733Z,19.16
2022-09-23T16:06:13.405Z,19.12
2022-09-23T16:08:42.156Z,19.08
2022-09-23T16:11:19.413Z,19.02
2022-09-23T16:13:46.162Z,18.96
2022-09-23T16:16:13.002Z,18.91
2022-09-23T16:18:42.287Z,18.86
2022-09-23T16:21:12.986Z,18.80
2022-09-23T16:23:50.001Z,18.73
2022-09-23T16:26:19.680Z,18.66
2022-09-23T16:28:47.790Z,18.63
2022-09-23T16:31:15.885Z,18.58
2022-09-23T16:33:46.391Z,18.55
2022-09-23T16:36:28.559Z,18.50
2022-09-23T16:38:55.566Z,18.44
2022-09-23T16:41:28.789Z,18.41
2022-09-23T16:43:56.207Z,18.35
2022-09-23T16:46:23.867Z,18.27
2022-09-23T16:48:52.858Z,18.22
2022-09-23T16:51:26.562Z,18.20
2022-09-23T16:54:10.122Z,18.19
2022-09-23T16:56:38.521Z,18.15
2022-09-23T16:59:05.322Z,18.11
2022-09-23T17:01:50.423Z,18.09
2022-09-23T17:04:19.973Z,18.05
2022-09-23T17:06:50.042Z,18.01
2022-09-23T17:09:21.736Z,17.96
2022-09-23T17:12:04.855Z,17.96
2022-09-23T17:14:31.485Z,17.93
2022-09-23T17:16:58.945Z,17.91
2022-09-23T17:19:25.387Z,17.86
2022-09-23T17:21:53.106Z,17.80
2022-09-23T17:24:19.459Z,17.74
2022-09-23T17:26:50.587Z,17.66
2022-09-23T17:29:19.117Z,17.63
2022-09-23T17:31:46.593Z,17.58
2022-09-23T17:34:15.327Z,17.53
2022-09-23T17:36:41.805Z,17.51
2022-09-23T17:39:08.446Z,17.48
2022-09-23T17:41:36.410Z,17.48
2022-09-23T17:44:04.663Z,17.46
2022-09-23T17:46:32.151Z,17.48
2022-09-23T17:48:58.489Z,17.50
2022-09-23T17:51:25.511Z,17.51
2022-09-23T17:53:52.095Z,17.55
2022-09-23T17:56:20.878Z,17.55
2022-09-23T17:58:48.703Z,17.56
2022-09-23T18:01:17.223Z,17.56
2022-09-23T18:03:44.085Z,17.56
2022-09-23T18:06:15.039Z,17.54
2022-09-23T18:08:44.666Z,17.51
2022-09-23T18:11:17.451Z,17.51
2022-09-23T18:13:57.817Z,17.48
2022-09-23T18:16:28.425Z,17.47
2022-09-23T18:18:57.199Z,17.43
2022-09-23T18:21:26.054Z,17.46
2022-09-23T18:23:57.301Z,17.45
2022-09-23T18:26:29.584Z,17.41
2022-09-23T18:29:00.617Z,17.39
2022-09-23T18:31:28.530Z,17.38
2022-09-23T18:33:58.337Z,17.35
2022-09-23T18:36:25.919Z,17.33
2022-09-23T18:38:52.337Z,17.31
2022-09-23T18:41:19.648Z,17.32
2022-09-23T18:43:48.697Z,17.31
2022-09-23T18:46:20.946Z,17.32
2022-09-23T18:49:18.688Z,17.33
2022-09-23T18:51:50.992Z,17.32
2022-09-23T18:54:19.347Z,17.33
2022-09-23T18:56:46.389Z,17.33
2022-09-23T18:59:16.553Z,17.31
2022-09-23T19:01:45.649Z,17.31
2022-09-23T19:04:18.586Z,17.32
2022-09-23T19:06:48.049Z,17.28
2022-09-23T19:09:15.519Z,17.29
2022-09-23T19:11:42.172Z,17.30
2022-09-23T19:14:11.552Z,17.29
2022-09-23T19:16:39.250Z,17.30
2022-09-23T19:19:12.296Z,17.29
2022-09-23T19:21:38.671Z,17.23
2022-09-23T19:24:07.200Z,17.21
2022-09-23T19:26:37.520Z,17.19
2022-09-23T19:29:13.768Z,17.19
2022-09-23T19:31:40.815Z,17.20
2022-09-23T19:34:29.429Z,17.21
2022-09-23T19:37:00.008Z,17.20
2022-09-23T19:39:37.882Z,17.21
2022-09-23T19:42:06.387Z,17.16
2022-09-23T19:44:32.798Z,17.14
2022-09-23T19:46:59.366Z,17.11
2022-09-23T19:49:27.804Z,17.12
2022-09-23T19:51:56.339Z,17.14
2022-09-23T19:54:30.140Z,17.13
2022-09-23T19:56:57.839Z,17.13
2022-09-23T19:59:27.422Z,17.14
2022-09-23T20:01:54.324Z,17.13
2022-09-23T20:04:20.944Z,17.14
2022-09-23T20:06:49.538Z,17.12
2022-09-23T20:09:17.322Z,17.08
2022-09-23T20:11:47.047Z,17.03
2022-09-23T20:14:23.904Z,17.01
2022-09-23T20:16:51.841Z,16.96
2022-09-23T20:19:29.143Z,16.93
2022-09-23T20:22:14.528Z,16.90
2022-09-23T20:24:40.850Z,16.86
2022-09-23T20:27:10.797Z,16.86
2022-09-23T20:29:37.790Z,16.86
2022-09-23T20:32:04.589Z,16.84
2022-09-23T20:34:37.610Z,16.84
2022-09-23T20:37:05.527Z,16.81
2022-09-23T20:39:32.032Z,16.80
2022-09-23T20:41:59.907Z,16.79
2022-09-23T20:44:29.136Z,16.79
2022-09-23T20:47:01.941Z,16.80
2022-09-23T20:49:34.757Z,16.83
2022-09-23T20:52:04.279Z,16.82
2022-09-23T20:54:31.332Z,16.82
2022-09-23T20:56:59.798Z,16.83
2022-09-23T20:59:27.189Z,16.79
2022-09-23T21:01:58.464Z,16.77
2022-09-23T21:04:25.493Z,16.77
2022-09-23T21:07:02.010Z,16.79
2022-09-23T21:09:30.975Z,16.79
2022-09-23T21:11:57.349Z,16.78
2022-09-23T21:17:12.305Z,16.71
2022-09-23T21:19:41.281Z,16.73
2022-09-23T21:22:08.589Z,16.72
2022-09-23T21:25:25.666Z,16.70
2022-09-23T21:27:32.735Z,16.68
2022-09-23T21:29:59.580Z,16.63
2022-09-23T21:32:26.048Z,16.56
2022-09-23T21:34:52.535Z,16.53
2022-09-23T21:37:18.894Z,16.51
2022-09-23T21:40:05.299Z,16.50
2022-09-23T21:42:31.733Z,16.51
2022-09-23T21:44:58.050Z,16.50
2022-09-23T21:47:24.902Z,16.46
2022-09-23T21:49:51.861Z,16.44
2022-09-23T21:52:18.182Z,16.42
2022-09-23T21:54:44.529Z,16.40
2022-09-23T21:57:11.749Z,16.38
2022-09-23T21:59:38.084Z,16.39
2022-09-23T22:02:04.507Z,16.36
2022-09-23T22:04:32.229Z,16.38
2022-09-23T22:07:00.116Z,16.38
2022-09-23T22:09:26.786Z,16.36
2022-09-23T22:12:07.368Z,16.37
2022-09-23T22:14:33.951Z,16.37
2022-09-23T22:17:03.627Z,16.36
2022-09-23T22:19:35.644Z,16.34
2022-09-23T22:22:06.640Z,16.34
2022-09-23T22:24:33.350Z,16.35
2022-09-23T22:26:59.941Z,16.32
2022-09-23T22:29:44.803Z,16.32
2022-09-23T22:32:30.646Z,16.31
2022-09-23T22:34:58.225Z,16.33
2022-09-23T22:37:30.310Z,16.36
2022-09-23T22:39:56.750Z,16.35
2022-09-23T22:42:23.211Z,16.37
2022-09-23T22:44:50.373Z,16.36
2022-09-23T22:47:17.849Z,16.37
2022-09-23T22:49:45.237Z,16.39
2022-09-23T22:52:12.492Z,16.39
2022-09-23T22:54:38.929Z,16.33
2022-09-23T22:57:11.192Z,16.31
2022-09-23T22:59:37.891Z,16.27
2022-09-23T23:02:06.502Z,16.24
2022-09-23T23:04:33.763Z,16.23
2022-09-23T23:07:00.328Z,16.21
2022-09-23T23:09:26.750Z,16.22
2022-09-23T23:11:53.200Z,16.23
2022-09-23T23:14:19.648Z,16.23
2022-09-23T23:16:49.482Z,16.25
2022-09-23T23:19:17.463Z,16.23
2022-09-23T23:21:45.318Z,16.22
2022-09-23T23:24:19.974Z,16.22
2022-09-23T23:26:46.582Z,16.24
2022-09-23T23:29:16.426Z,16.23
2022-09-23T23:31:47.191Z,16.24
2022-09-23T23:34:21.784Z,16.24
2022-09-23T23:36:54.690Z,16.23
2022-09-23T23:39:26.050Z,16.25
2022-09-23T23:41:55.174Z,16.24
2022-09-23T23:44:26.056Z,16.21
2022-09-23T23:46:53.997Z,16.19
2022-09-23T23:49:20.742Z,16.19
2022-09-23T23:51:47.787Z,16.16
2022-09-23T23:54:15.077Z,16.13
2022-09-23T23:56:45.276Z,16.14
2022-09-23T23:59:11.614Z,16.09
